Time;durP1;ratioP1;P1;durP2;ratioP2;P2;SDS_P1;SDS_P2;PMS_P1;PMS_P2;Temp;Humidity;BMP_temperature;BMP_pressure;BME280_temperature;BME280_humidity;BME280_pressure;Samples;Min_cycle;Max_cycle;Signal;HPM_P1;HPM_P2
2023/06/08 00:02:17;;;;;;;7.82;4.72;;;;;;;15.39;100.00;102154.31;5053088;28;20032;-73
2023/06/08 00:04:46;;;;;;;9.68;4.63;;;;;;;14.99;100.00;102101.88;5071442;28;20028;-73
2023/06/08 00:07:16;;;;;;;8.40;4.80;;;;;;;15.00;100.00;102093.31;5071466;28;20101;-73
2023/06/08 00:09:42;;;;;;;7.55;4.53;;;;;;;14.78;100.00;102102.97;5071615;28;20032;-73
2023/06/08 00:12:08;;;;;;;6.75;4.95;;;;;;;14.64;100.00;102111.66;5053330;28;20059;-74
2023/06/08 00:14:35;;;;;;;8.75;5.00;;;;;;;14.81;100.00;102102.09;5075134;28;20028;-74
2023/06/08 00:17:03;;;;;;;7.22;4.38;;;;;;;14.93;100.00;102103.66;5057243;28;20028;-74
2023/06/08 00:19:33;;;;;;;8.75;4.80;;;;;;;14.71;100.00;102067.22;5075268;28;20037;-73
2023/06/08 00:22:04;;;;;;;6.65;4.43;;;;;;;15.34;100.00;102127.91;5056920;28;20032;-73
2023/06/08 00:24:34;;;;;;;5.25;4.00;;;;;;;15.51;100.00;102136.25;5057144;28;20560;-73
2023/06/08 00:26:59;;;;;;;6.97;4.30;;;;;;;15.15;100.00;102080.31;5056829;28;20044;-73
2023/06/08 00:29:25;;;;;;;8.55;4.45;;;;;;;15.33;100.00;102105.69;5074658;28;20047;-74
2023/06/08 00:31:52;;;;;;;7.63;4.05;;;;;;;15.05;100.00;102036.91;5074417;28;20037;-73
2023/06/08 00:34:18;;;;;;;8.68;4.05;;;;;;;15.24;100.00;102121.22;5056922;28;20029;-74
2023/06/08 00:36:43;;;;;;;7.60;4.43;;;;;;;15.13;100.00;102058.97;5074486;28;20123;-74
2023/06/08 00:39:10;;;;;;;6.40;4.68;;;;;;;15.29;100.00;102104.03;5074432;28;20107;-74
2023/06/08 00:41:36;;;;;;;7.40;4.72;;;;;;;15.10;100.00;102091.50;5056789;28;20491;-74
2023/06/08 00:44:04;;;;;;;8.82;5.38;;;;;;;14.62;100.00;102096.31;5074338;28;20036;-73
2023/06/08 00:46:30;;;;;;;7.07;5.55;;;;;;;14.80;100.00;102077.34;5074350;28;20028;-74
2023/06/08 00:48:57;;;;;;;6.93;5.30;;;;;;;14.79;100.00;102093.56;5056122;28;20558;-73
2023/06/08 00:51:26;;;;;;;8.23;5.53;;;;;;;14.85;100.00;102090.94;5056787;28;20024;-74
2023/06/08 00:53:53;;;;;;;9.15;6.00;;;;;;;15.00;100.00;102093.31;5074283;28;20790;-73
2023/06/08 00:56:18;;;;;;;6.20;5.45;;;;;;;15.01;100.00;102074.53;5056507;28;20032;-74
2023/06/08 00:58:48;;;;;;;7.82;5.65;;;;;;;15.01;100.00;102077.09;5056102;28;20413;-73
2023/06/08 01:01:18;;;;;;;8.18;5.68;;;;;;;15.00;100.00;102088.19;5074303;28;20033;-73
2023/06/08 01:03:46;;;;;;;8.95;6.05;;;;;;;14.77;100.00;102074.81;5074548;28;20035;-73
2023/06/08 01:06:16;;;;;;;7.85;5.55;;;;;;;14.90;100.00;102068.69;5056522;28;20029;-73
2023/06/08 01:09:02;;;;;;;8.55;6.38;;;;;;;14.78;100.00;102068.81;5056023;28;20032;-73
2023/06/08 01:11:34;;;;;;;7.22;6.03;;;;;;;14.76;100.00;102107.25;5073702;28;20036;-73
2023/06/08 01:14:02;;;;;;;;;;;;;;;14.81;100.00;102102.09;5074819;28;20396;-74
2023/06/08 01:16:36;;;;;;;10.43;6.68;;;;;;;14.70;100.00;102132.06;5056014;28;19916;-73
2023/06/08 01:19:10;;;;;;;8.57;6.30;;;;;;;14.27;100.00;102062.50;5056079;28;20483;-73
2023/06/08 01:21:44;;;;;;;7.40;6.00;;;;;;;14.62;100.00;102098.00;5074134;28;20040;-73
2023/06/08 01:24:16;;;;;;;8.43;6.30;;;;;;;14.23;100.00;102104.34;5055086;28;20035;-73
2023/06/08 01:26:49;;;;;;;8.35;6.30;;;;;;;13.86;100.00;102074.81;5055820;28;20053;-73
2023/06/08 01:29:15;;;;;;;8.20;5.93;;;;;;;13.94;100.00;102073.88;5073468;28;20025;-74
2023/06/08 01:31:41;;;;;;;12.95;6.90;;;;;;;14.21;100.00;102135.91;5073741;28;20032;-73
2023/06/08 01:34:09;;;;;;;10.70;7.38;;;;;;;13.99;100.00;102119.88;5073316;28;20034;-73
2023/06/08 01:37:00;;;;;;;10.55;7.07;;;;;;;13.95;100.00;102131.00;5073264;28;20044;-73
2023/06/08 01:39:45;;;;;;;8.37;7.10;;;;;;;14.01;100.00;102142.88;5073683;28;20032;-73
2023/06/08 01:42:14;;;;;;;9.27;7.60;;;;;;;13.85;100.00;102145.56;5073078;28;20032;-72
2023/06/08 01:44:47;;;;;;;11.43;8.93;;;;;;;13.59;100.00;102093.75;5072885;28;20032;-72
2023/06/08 01:47:15;;;;;;;11.07;8.18;;;;;;;13.75;100.00;102095.34;5073105;28;20063;-71
2023/06/08 01:49:42;;;;;;;11.00;7.78;;;;;;;13.63;100.00;102062.19;5073053;28;20033;-72
2023/06/08 01:52:08;;;;;;;9.65;6.50;;;;;;;13.75;100.00;102103.00;5072986;28;20072;-72
2023/06/08 01:54:34;;;;;;;9.30;6.47;;;;;;;13.61;100.00;102075.81;5055026;28;20033;-73
2023/06/08 01:56:59;;;;;;;10.40;6.75;;;;;;;13.84;100.00;102115.72;5072762;28;20480;-72
2023/06/08 01:59:25;;;;;;;8.63;6.30;;;;;;;14.08;100.00;102159.91;5055354;28;20031;-72
2023/06/08 02:01:52;;;;;;;10.15;6.22;;;;;;;13.73;100.00;102107.28;5072644;28;20021;-72
2023/06/08 02:04:17;;;;;;;12.50;6.50;;;;;;;13.87;100.00;102122.53;5072935;28;20021;-72
2023/06/08 02:06:43;;;;;;;11.40;6.07;;;;;;;13.63;100.00;102120.13;5072458;28;20051;-72
2023/06/08 02:09:08;;;;;;;7.82;6.47;;;;;;;13.96;100.00;102149.75;5072484;28;20082;-73
2023/06/08 02:11:34;;;;;;;11.15;6.57;;;;;;;13.89;100.00;102138.72;5071921;28;20329;-72
2023/06/08 02:13:59;;;;;;;8.85;6.25;;;;;;;13.97;100.00;102149.72;5072353;28;20477;-72
2023/06/08 02:16:25;;;;;;;8.05;6.20;;;;;;;14.06;100.00;102151.41;5072059;28;20032;-72
2023/06/08 02:18:51;;;;;;;10.13;6.68;;;;;;;13.76;100.00;102132.00;5072506;28;20495;-73
2023/06/08 02:21:17;;;;;;;8.68;6.60;;;;;;;13.51;100.00;102090.38;5054574;28;20055;-73
2023/06/08 02:23:42;;;;;;;7.85;6.53;;;;;;;13.81;100.00;102125.97;5072828;28;20064;-73
2023/06/08 02:26:08;;;;;;;9.00;5.47;;;;;;;14.19;100.00;102179.44;5072610;28;20044;-72
2023/06/08 02:28:34;;;;;;;10.40;5.70;;;;;;;13.59;100.00;102167.88;5072412;28;20422;-73
2023/06/08 02:31:00;;;;;;;6.63;5.70;;;;;;;13.48;100.00;102186.66;5071176;28;20522;-72
2023/06/08 02:33:28;;;;;;;9.13;6.25;;;;;;;13.55;100.00;102189.19;5071386;28;20040;-73
2023/06/08 02:35:54;;;;;;;9.15;6.30;;;;;;;13.31;100.00;102157.78;5071092;28;20094;-73
2023/06/08 02:38:20;;;;;;;7.80;5.78;;;;;;;13.36;100.00;102164.56;5072261;28;20028;-73
2023/06/08 02:40:45;;;;;;;8.75;5.85;;;;;;;13.28;100.00;102139.91;5072603;28;20024;-73
2023/06/08 02:43:11;;;;;;;8.27;6.00;;;;;;;13.71;100.00;102241.09;5054799;28;20116;-74
2023/06/08 02:45:37;;;;;;;9.30;5.80;;;;;;;13.77;100.00;102246.16;5072384;28;20139;-72
2023/06/08 02:48:03;;;;;;;9.88;6.30;;;;;;;13.77;100.00;102246.16;5072018;28;20031;-73
2023/06/08 02:50:28;;;;;;;8.52;6.07;;;;;;;13.69;100.00;102233.44;5054008;28;20024;-73
2023/06/08 02:52:54;;;;;;;8.75;5.95;;;;;;;13.65;100.00;102238.56;5072200;28;20036;-73
2023/06/08 02:55:20;;;;;;;10.73;6.00;;;;;;;13.53;100.00;102228.38;5071019;28;20017;-73
2023/06/08 02:57:53;;;;;;;9.70;5.80;;;;;;;13.42;100.00;102622.00;5109094;27;20391;-74
2023/06/08 03:00:20;;;;;;;10.88;5.90;;;;;;;13.70;100.00;102576.88;5109212;28;20044;-73
2023/06/08 03:02:46;;;;;;;11.48;6.10;;;;;;;13.97;100.00;102528.28;5108076;28;20038;-73
2023/06/08 03:05:13;;;;;;;10.63;6.13;;;;;;;13.54;100.00;102458.44;5108082;28;20028;-74
2023/06/08 03:07:40;;;;;;;10.13;5.97;;;;;;;13.59;100.00;102417.50;5102202;28;20399;-72
2023/06/08 03:10:07;;;;;;;9.75;6.50;;;;;;;14.08;100.00;102431.06;5107664;28;20028;-73
2023/06/08 03:12:33;;;;;;;9.13;6.00;;;;;;;14.08;100.00;102431.94;5105147;28;20039;-73
2023/06/08 03:14:59;;;;;;;9.13;6.07;;;;;;;13.86;100.00;102376.56;5109170;28;20031;-73
2023/06/08 03:17:26;;;;;;;9.05;5.13;;;;;;;14.27;100.00;102391.75;5107863;28;20078;-74
2023/06/08 03:19:52;;;;;;;7.50;5.53;;;;;;;14.27;100.00;102407.97;5107807;28;20485;-72
2023/06/08 03:22:20;;;;;;;10.98;5.90;;;;;;;14.37;100.00;102390.91;5107989;28;20043;-73
2023/06/08 03:24:48;;;;;;;11.45;5.68;;;;;;;14.27;100.00;102387.50;5108997;28;20426;-73
2023/06/08 03:27:14;;;;;;;8.65;5.60;;;;;;;14.38;100.00;102384.94;5108426;28;20039;-73
2023/06/08 03:29:39;;;;;;;10.30;6.63;;;;;;;14.48;100.00;102376.34;5107802;28;20036;-72
2023/06/08 03:32:05;;;;;;;13.25;6.18;;;;;;;14.70;100.00;102372.78;5107489;28;20058;-71
2023/06/08 03:34:31;;;;;;;10.27;5.88;;;;;;;14.91;100.00;102357.28;5108196;28;20509;-72
2023/06/08 03:36:56;;;;;;;13.38;6.40;;;;;;;14.68;100.00;102315.59;5107068;28;20226;-71
2023/06/08 03:39:22;;;;;;;10.60;6.35;;;;;;;14.70;100.00;102336.94;5108182;28;20031;-71
2023/06/08 03:41:51;;;;;;;11.40;6.75;;;;;;;14.98;100.00;102301.72;5071313;22;22649;-74
2023/06/08 03:44:16;;;;;;;11.93;6.53;;;;;;;15.17;100.00;102313.50;4350611;28;10000546;-72
2023/06/08 03:46:42;;;;;;;11.57;6.57;;;;;;;15.12;100.00;102300.72;5047845;28;20118;-71
2023/06/08 03:49:07;;;;;;;11.65;6.88;;;;;;;15.25;100.00;102327.09;5045339;28;20037;-71
2023/06/08 03:51:33;;;;;;;8.98;6.00;;;;;;;14.71;100.00;102251.59;5061435;28;20519;-71
2023/06/08 03:53:58;;;;;;;12.75;6.05;;;;;;;14.87;100.00;102258.28;5048857;28;20071;-72
2023/06/08 03:56:25;;;;;;;9.73;5.72;;;;;;;15.01;100.00;102309.38;5066262;28;20505;-71
2023/06/08 03:58:51;;;;;;;10.65;6.22;;;;;;;14.96;100.00;102254.75;5067006;28;20032;-70
2023/06/08 04:01:17;;;;;;;12.30;6.35;;;;;;;14.60;100.00;102189.34;5064422;28;20037;-70
2023/06/08 04:03:45;;;;;;;11.65;7.40;;;;;;;14.95;100.00;102268.44;5048210;28;20558;-71
2023/06/08 04:06:10;;;;;;;13.77;7.63;;;;;;;15.29;100.00;102298.03;5065424;28;20041;-72
2023/06/08 04:08:40;;;;;;;13.30;8.05;;;;;;;14.52;100.00;102186.00;5055830;28;20036;-72
2023/06/08 04:11:07;;;;;;;14.00;8.20;;;;;;;15.02;100.00;102283.75;5049652;28;20733;-70
2023/06/08 04:13:34;;;;;;;16.30;8.70;;;;;;;15.12;100.00;102299.88;5032307;28;20075;-70
2023/06/08 04:16:00;;;;;;;15.88;8.30;;;;;;;15.35;100.00;102303.91;5014884;28;20031;-70
2023/06/08 04:18:26;;;;;;;14.63;8.35;;;;;;;14.83;100.00;102220.75;5033189;28;20119;-70
2023/06/08 04:20:52;;;;;;;12.88;7.95;;;;;;;15.32;100.00;102311.66;5033556;28;20112;-70
2023/06/08 04:23:17;;;;;;;10.68;7.15;;;;;;;15.50;100.00;102339.72;5015547;28;20108;-71
2023/06/08 04:25:43;;;;;;;10.43;8.00;;;;;;;15.58;100.00;102303.72;5052332;28;20111;-70
2023/06/08 04:28:08;;;;;;;12.27;7.07;;;;;;;15.12;100.00;102269.13;5033715;28;20044;-70
2023/06/08 04:30:34;;;;;;;8.40;7.10;;;;;;;15.35;100.00;102303.09;5034715;28;20722;-71
2023/06/08 04:33:00;;;;;;;10.75;7.53;;;;;;;15.65;100.00;102330.97;5052272;28;20475;-70
2023/06/08 04:35:26;;;;;;;12.13;7.07;;;;;;;15.09;100.00;102226.47;5035254;28;20032;-73
2023/06/08 04:37:52;;;;;;;9.27;6.90;;;;;;;16.13;100.00;102311.59;5037555;28;20029;-71
2023/06/08 04:40:19;;;;;;;13.48;6.80;;;;;;;16.36;100.00;102340.38;5044924;28;20513;-71
2023/06/08 04:42:45;;;;;;;11.40;6.25;;;;;;;16.69;100.00;102337.34;5034515;28;20057;-72
2023/06/08 04:45:11;;;;;;;9.35;6.00;;;;;;;16.73;100.00;102336.44;5051658;28;20029;-73
2023/06/08 04:47:37;;;;;;;9.88;6.40;;;;;;;17.77;100.00;102305.44;5035278;28;20051;-71
2023/06/08 04:50:05;;;;;;;14.55;6.63;;;;;;;17.48;100.00;102324.00;5034282;28;20028;-69
2023/06/08 04:52:31;;;;;;;10.93;6.85;;;;;;;17.34;100.00;102303.69;5052179;28;20021;-69
2023/06/08 04:55:01;;;;;;;8.77;6.40;;;;;;;17.55;100.00;102293.91;5049473;28;20025;-69
2023/06/08 04:57:26;;;;;;;11.48;6.68;;;;;;;17.27;100.00;102224.94;5050936;28;20036;-71
2023/06/08 04:59:51;;;;;;;13.98;6.22;;;;;;;17.70;100.00;102255.00;5034040;28;20036;-71
2023/06/08 05:02:17;;;;;;;12.60;6.18;;;;;;;17.74;100.00;102249.75;5052011;28;20065;-71
2023/06/08 05:04:42;;;;;;;11.55;6.20;;;;;;;17.94;100.00;102250.19;5033552;28;20025;-71
2023/06/08 05:07:08;;;;;;;11.35;6.15;;;;;;;17.90;100.00;102198.78;5052089;28;20108;-70
2023/06/08 05:09:33;;;;;;;13.35;6.30;;;;;;;18.03;100.00;102146.97;5051470;28;20414;-70
2023/06/08 05:11:58;;;;;;;11.35;6.18;;;;;;;18.74;100.00;102237.13;5034075;28;20029;-70
2023/06/08 05:14:24;;;;;;;8.45;6.15;;;;;;;18.64;100.00;102241.66;5033410;28;20678;-72
2023/06/08 05:16:49;;;;;;;14.82;6.43;;;;;;;18.50;100.00;102174.16;5051944;28;20037;-71
2023/06/08 05:19:15;;;;;;;9.23;5.03;;;;;;;19.21;100.00;102223.00;5050817;28;20060;-70
2023/06/08 05:21:41;;;;;;;9.25;4.70;;;;;;;19.19;100.00;102162.88;5033829;28;20035;-72
2023/06/08 05:24:07;;;;;;;5.90;3.90;;;;;;;19.38;100.00;102201.03;5034111;28;20509;-70
2023/06/08 05:26:32;;;;;;;16.20;5.55;;;;;;;19.24;100.00;102150.66;5053208;28;20025;-71
2023/06/08 05:28:58;;;;;;;10.55;6.15;;;;;;;19.34;100.00;102111.69;5054013;28;20025;-71
2023/06/08 05:31:26;;;;;;;8.85;5.43;;;;;;;19.63;100.00;102118.56;5034597;28;20025;-71
2023/06/08 05:33:51;;;;;;;7.15;4.60;;;;;;;19.09;100.00;102157.13;5052141;28;20032;-71
2023/06/08 05:36:16;;;;;;;10.95;4.47;;;;;;;19.77;100.00;102099.16;5033956;28;20079;-70
2023/06/08 05:38:42;;;;;;;9.27;4.53;;;;;;;19.78;100.00;102112.91;5033830;28;20490;-71
2023/06/08 05:41:07;;;;;;;8.93;4.40;;;;;;;19.09;100.00;102033.34;5033648;28;20029;-71
2023/06/08 05:43:33;;;;;;;14.75;5.45;;;;;;;19.32;100.00;102014.56;5033401;28;20082;-70
2023/06/08 05:45:58;;;;;;;7.00;3.55;;;;;;;19.02;100.00;101998.28;5051307;28;20502;-70
2023/06/08 05:48:23;;;;;;;6.75;3.83;;;;;;;19.83;100.00;101992.25;5033376;28;20029;-70
2023/06/08 05:50:49;;;;;;;5.43;2.97;;;;;;;19.78;100.00;101958.00;5051060;28;20037;-71
2023/06/08 05:53:15;;;;;;;6.22;3.25;;;;;;;20.33;100.00;102000.84;5032211;28;20453;-70
2023/06/08 05:55:41;;;;;;;6.82;3.55;;;;;;;20.13;100.00;101974.84;5051356;28;20044;-70
2023/06/08 05:58:11;;;;;;;10.13;3.50;;;;;;;20.42;100.00;101903.16;5052385;28;20048;-71
2023/06/08 06:00:36;;;;;;;8.57;3.40;;;;;;;20.13;100.00;101859.44;5051083;28;20424;-70
2023/06/08 06:03:02;;;;;;;6.38;3.25;;;;;;;20.50;100.00;101929.56;5051300;28;20044;-70
2023/06/08 06:05:27;;;;;;;5.90;3.60;;;;;;;20.20;100.00;101845.44;5035030;28;20033;-70
2023/06/08 06:07:53;;;;;;;8.27;3.28;;;;;;;20.51;100.00;101869.22;5033230;28;20040;-70
2023/06/08 06:10:18;;;;;;;5.43;3.55;;;;;;;19.87;100.00;101820.81;5050923;28;20542;-71
2023/06/08 06:12:43;;;;;;;4.03;3.00;;;;;;;20.61;100.00;101870.53;5032324;28;20469;-70
2023/06/08 06:15:09;;;;;;;6.22;3.20;;;;;;;20.67;100.00;101822.91;5033003;28;20021;-70
2023/06/08 06:17:35;;;;;;;5.60;3.13;;;;;;;21.26;100.00;101865.31;5050684;28;20103;-70
2023/06/08 06:20:01;;;;;;;4.82;3.03;;;;;;;20.47;100.00;101800.44;5040307;28;20091;-70
2023/06/08 06:22:26;;;;;;;7.82;3.42;;;;;;;20.91;100.00;101841.78;5030894;28;20465;-71
2023/06/08 06:24:52;;;;;;;8.05;3.30;;;;;;;20.69;100.00;101790.94;5030347;28;20025;-70
2023/06/08 06:27:18;;;;;;;7.35;3.63;;;;;;;21.76;100.00;101826.03;5029130;28;20451;-70
2023/06/08 06:29:44;;;;;;;8.68;3.63;;;;;;;20.93;100.00;101834.78;5038043;28;20391;-70
2023/06/08 06:32:11;;;;;;;9.82;3.42;;;;;;;20.78;100.00;101822.50;5032590;28;20033;-70
2023/06/08 06:34:37;;;;;;;6.78;3.42;;;;;;;21.25;100.00;101852.44;5050393;28;20065;-70
2023/06/08 06:37:03;;;;;;;7.50;3.65;;;;;;;20.66;100.00;101777.25;5050579;28;20453;-70
2023/06/08 06:39:29;;;;;;;6.60;3.58;;;;;;;21.52;100.00;101835.72;5032331;28;20036;-70
2023/06/08 06:41:54;;;;;;;5.57;3.10;;;;;;;21.36;100.00;101822.63;5049733;28;20021;-71
2023/06/08 06:44:20;;;;;;;5.65;3.47;;;;;;;21.22;100.00;101834.44;5040580;28;20075;-70
2023/06/08 06:46:46;;;;;;;7.03;3.70;;;;;;;20.70;100.00;101773.66;5059145;28;20029;-70
2023/06/08 06:49:11;;;;;;;6.35;3.40;;;;;;;20.91;100.00;101792.63;5033382;28;20025;-69
2023/06/08 06:51:37;;;;;;;5.15;2.63;;;;;;;21.41;100.00;101781.00;5050505;28;20036;-70
2023/06/08 06:54:02;;;;;;;4.38;3.05;;;;;;;20.50;100.00;101753.78;5050557;28;20033;-69
2023/06/08 06:56:28;;;;;;;5.93;3.10;;;;;;;21.55;100.00;101771.72;5050378;28;20086;-70
2023/06/08 06:58:53;;;;;;;4.93;3.22;;;;;;;21.35;100.00;101815.75;5048896;28;20664;-70
2023/06/08 07:01:19;;;;;;;5.70;3.50;;;;;;;21.30;100.00;101809.09;5050355;28;20097;-71
2023/06/08 07:03:46;;;;;;;4.90;3.20;;;;;;;20.45;100.00;101766.06;5050046;28;20032;-70
2023/06/08 07:06:12;;;;;;;9.18;3.47;;;;;;;21.30;100.00;101765.09;5050600;28;20123;-70
2023/06/08 07:08:38;;;;;;;5.07;3.00;;;;;;;21.91;100.00;101825.38;5031817;28;20072;-70
2023/06/08 07:11:04;;;;;;;4.97;3.30;;;;;;;21.37;100.00;101759.56;5050486;28;20029;-70
2023/06/08 07:13:30;;;;;;;5.38;3.08;;;;;;;22.13;100.00;101754.38;5049741;28;20048;-70
2023/06/08 07:15:56;;;;;;;5.93;3.20;;;;;;;21.20;100.00;101668.06;5050282;28;20029;-69
2023/06/08 07:18:21;;;;;;;8.05;3.17;;;;;;;21.83;100.00;101706.56;5050256;28;20078;-69
2023/06/08 07:20:47;;;;;;;5.15;3.42;;;;;;;21.53;100.00;101708.78;5050007;28;20036;-69
2023/06/08 07:23:12;;;;;;;8.20;3.30;;;;;;;21.79;100.00;101736.09;5049709;28;20043;-69
2023/06/08 07:25:38;;;;;;;7.57;3.40;;;;;;;22.45;100.00;101669.84;5031653;28;20033;-69
2023/06/08 07:28:05;;;;;;;6.63;3.60;;;;;;;21.89;100.00;101644.13;5031495;28;20079;-69
2023/06/08 07:30:31;;;;;;;5.07;3.33;;;;;;;22.31;100.00;101667.94;5049996;28;20075;-69
2023/06/08 07:32:58;;;;;;;9.95;5.30;;;;;;;22.98;100.00;101634.25;5049513;28;20028;-69
2023/06/08 07:35:23;;;;;;;5.63;3.40;;;;;;;22.61;100.00;101618.94;5049274;28;20036;-70
2023/06/08 07:37:49;;;;;;;9.02;3.45;;;;;;;23.00;100.00;101549.38;5031641;28;20095;-70
2023/06/08 07:40:17;;;;;;;5.28;3.10;;;;;;;23.81;100.00;101506.75;5049627;28;20037;-70
2023/06/08 07:42:44;;;;;;;5.07;3.10;;;;;;;23.66;100.00;101471.25;5031782;28;20075;-70
2023/06/08 07:45:11;;;;;;;5.43;3.03;;;;;;;23.57;100.00;101471.78;5035011;28;20032;-71
2023/06/08 07:47:38;;;;;;;5.93;3.47;;;;;;;22.66;100.00;101375.72;5035409;28;20040;-70
2023/06/08 07:50:05;;;;;;;5.25;3.10;;;;;;;23.04;100.00;101381.34;5052603;28;20025;-69
2023/06/08 07:52:31;;;;;;;4.63;3.17;;;;;;;22.86;100.00;101361.63;5052880;28;20035;-70
2023/06/08 07:54:56;;;;;;;5.93;3.22;;;;;;;23.41;100.00;101388.75;5053209;28;20021;-70
2023/06/08 07:57:21;;;;;;;4.53;2.92;;;;;;;23.63;100.00;101337.19;5053036;28;20041;-70
2023/06/08 07:59:47;;;;;;;8.52;3.35;;;;;;;24.02;100.00;101336.53;5034902;28;20037;-69
2023/06/08 08:02:12;;;;;;;7.47;3.03;;;;;;;22.74;100.00;101328.63;5034970;28;20057;-69
2023/06/08 08:04:38;;;;;;;5.72;3.40;;;;;;;24.27;100.00;101333.25;5053357;28;20055;-69
2023/06/08 08:07:03;;;;;;;6.47;3.50;;;;;;;23.90;100.00;101269.72;5052907;28;20115;-69
2023/06/08 08:09:28;;;;;;;6.18;3.83;;;;;;;23.09;100.00;101257.38;5052340;28;20070;-69
2023/06/08 08:11:54;;;;;;;9.38;5.13;;;;;;;23.67;100.00;101260.72;5052977;28;20438;-70
2023/06/08 08:14:19;;;;;;;6.28;3.30;;;;;;;23.14;100.00;101242.34;5052716;28;20494;-69
2023/06/08 08:16:45;;;;;;;8.18;3.83;;;;;;;24.10;100.00;101287.53;5034336;28;20037;-70
2023/06/08 08:19:10;;;;;;;5.88;3.45;;;;;;;23.50;100.00;101206.41;5034975;28;20041;-69
2023/06/08 08:21:36;;;;;;;7.25;3.20;;;;;;;24.55;100.00;101244.72;5052483;28;20039;-69
2023/06/08 08:24:01;;;;;;;6.78;3.08;;;;;;;24.41;100.00;101210.97;5052753;28;20036;-70
2023/06/08 08:26:28;;;;;;;9.23;3.70;;;;;;;24.80;100.00;101276.84;5052468;28;20029;-70
2023/06/08 08:28:55;;;;;;;5.28;3.15;;;;;;;23.63;100.00;101259.25;5053056;28;20062;-71
2023/06/08 08:31:20;;;;;;;4.47;3.35;;;;;;;24.21;100.00;101390.81;5034741;28;20112;-72
2023/06/08 08:33:46;;;;;;;6.75;3.00;;;;;;;24.90;100.00;101553.81;5052447;28;20066;-70
2023/06/08 08:36:11;;;;;;;5.18;3.50;;;;;;;24.29;100.00;102414.09;5052465;28;20048;-70
2023/06/08 08:38:39;;;;;;;6.97;3.60;;;;;;;24.51;100.00;102471.19;5034617;28;20029;-70
2023/06/08 08:41:08;;;;;;;7.03;3.70;;;;;;;23.97;100.00;102508.25;5052646;28;20120;-70
2023/06/08 08:43:45;;;;;;;5.07;3.00;;;;;;;24.78;100.00;102576.69;5052078;28;20095;-70
2023/06/08 08:46:11;;;;;;;4.43;3.40;;;;;;;25.29;100.00;102695.88;5034541;28;20041;-71
2023/06/08 08:48:44;;;;;;;5.85;3.67;;;;;;;24.38;100.00;102701.59;5052487;28;20109;-69
2023/06/08 08:51:19;;;;;;;3.42;2.97;;;;;;;24.08;100.00;102725.38;5052417;28;20028;-69
2023/06/08 08:53:49;;;;;;;6.28;3.40;;;;;;;24.76;100.00;102765.94;5031313;28;20063;-71
2023/06/08 08:56:30;;;;;;;4.38;3.20;;;;;;;25.86;100.00;102922.66;5034162;28;20119;-70
2023/06/08 08:58:56;;;;;;;3.72;3.17;;;;;;;24.32;100.00;102816.31;5051924;28;20060;-70
2023/06/08 09:01:22;;;;;;;6.95;3.20;;;;;;;25.23;100.00;102904.56;5051896;28;20065;-70
2023/06/08 09:03:48;;;;;;;4.75;3.10;;;;;;;25.08;100.00;102913.84;5033854;28;20445;-69
2023/06/08 09:06:14;;;;;;;7.55;3.33;;;;;;;24.59;100.00;102895.88;5067387;28;20158;-70
2023/06/08 09:08:40;;;;;;;6.32;3.33;;;;;;;25.50;100.00;103003.31;5051748;28;20609;-70
2023/06/08 09:11:09;;;;;;;6.05;2.88;;;;;;;24.66;100.00;102973.66;5051651;28;20033;-69
2023/06/08 09:13:35;;;;;;;5.03;2.90;;;;;;;25.63;100.00;103178.34;5051929;28;20119;-70
2023/06/08 09:16:21;;;;;;;5.28;3.00;;;;;;;25.66;100.00;103295.53;5049345;28;20467;-71
2023/06/08 09:19:03;;;;;;;4.55;2.88;;;;;;;25.54;100.00;103280.34;5031995;28;20138;-70
2023/06/08 09:21:29;;;;;;;7.95;3.40;;;;;;;25.77;100.00;103337.69;5033393;28;20029;-71
2023/06/08 09:24:12;;;;;;;6.65;3.08;;;;;;;25.89;100.00;103324.19;5033826;28;20425;-71
2023/06/08 09:26:42;;;;;;;6.00;2.97;;;;;;;24.98;100.00;103227.69;5033278;28;20036;-71
2023/06/08 09:29:08;;;;;;;5.93;3.97;;;;;;;25.66;100.00;103339.88;5050870;28;20037;-70
2023/06/08 09:31:34;;;;;;;6.43;3.40;;;;;;;26.23;100.00;103285.47;5033427;28;20345;-70
2023/06/08 09:34:10;;;;;;;5.40;2.78;;;;;;;26.42;100.00;103311.69;5033553;28;20043;-72
2023/06/08 09:36:38;;;;;;;5.35;2.90;;;;;;;25.64;100.00;103167.84;5049954;28;20033;-71
2023/06/08 09:39:05;;;;;;;4.38;3.20;;;;;;;25.23;100.00;103176.41;5039528;28;20041;-71
2023/06/08 09:41:32;;;;;;;6.55;4.30;;;;;;;25.22;100.00;103125.16;5041501;28;20033;-70
2023/06/08 09:43:57;;;;;;;9.30;4.82;;;;;;;25.76;100.00;103188.22;5036208;28;20045;-70
2023/06/08 09:46:38;;;;;;;7.65;4.03;;;;;;;26.16;100.00;103202.28;5012716;28;20116;-70
2023/06/08 09:49:08;;;;;;;6.07;3.63;;;;;;;25.93;100.00;103108.44;5018115;28;20036;-69
2023/06/08 09:51:35;;;;;;;13.32;9.18;;;;;;;25.58;100.00;103060.34;5049538;28;20024;-71
2023/06/08 09:54:02;;;;;;;7.57;5.40;;;;;;;25.89;100.00;103119.91;5048083;28;20405;-71
2023/06/08 09:56:28;;;;;;;5.72;3.60;;;;;;;25.89;100.00;103125.94;5048778;28;20419;-70
2023/06/08 09:59:01;;;;;;;5.93;3.67;;;;;;;25.45;100.00;103109.50;5050672;28;20033;-70
2023/06/08 10:01:40;;;;;;;5.25;3.45;;;;;;;25.93;100.00;103228.44;5050412;28;20037;-70
2023/06/08 10:04:19;;;;;;;7.53;3.05;;;;;;;25.62;100.00;103231.38;5050826;28;20035;-70
2023/06/08 10:06:47;;;;;;;5.05;2.75;;;;;;;25.92;100.00;103292.78;5052606;28;20059;-71
2023/06/08 10:09:18;;;;;;;6.35;2.92;;;;;;;26.19;100.00;103458.75;5066422;28;20021;-70
2023/06/08 10:12:09;;;;;;;6.25;3.20;;;;;;;25.93;100.00;103552.72;5085956;22;20041;-70
2023/06/08 10:14:35;;;;;;;4.40;3.00;;;;;;;25.45;100.00;103542.19;5009814;28;20136;-70
2023/06/08 10:17:02;;;;;;;4.57;3.30;;;;;;;26.13;100.00;103678.19;5009342;28;20029;-70
2023/06/08 10:19:32;;;;;;;9.30;4.75;;;;;;;25.90;100.00;104989.66;5010793;28;20030;-70
2023/06/08 10:21:57;;;;;;;7.72;2.92;;;;;;;26.45;100.00;104991.56;5009663;28;20574;-71
2023/06/08 10:24:24;;;;;;;8.75;4.55;;;;;;;25.72;100.00;104798.56;5009196;28;20116;-71
2023/06/08 10:26:50;;;;;;;8.63;4.40;;;;;;;25.61;100.00;104804.81;5011394;28;20104;-70
2023/06/08 10:29:17;;;;;;;12.98;6.88;;;;;;;25.90;100.00;104874.84;5009525;28;20102;-71
2023/06/08 10:31:47;;;;;;;9.75;4.00;;;;;;;27.40;100.00;104991.78;5012620;28;20033;-70
2023/06/08 10:34:15;;;;;;;6.30;3.00;;;;;;;26.86;100.00;104601.53;5011236;28;20484;-71
2023/06/08 10:36:42;;;;;;;5.43;2.95;;;;;;;25.99;100.00;104308.41;5010744;28;20076;-70
2023/06/08 10:39:12;;;;;;;8.55;3.15;;;;;;;26.59;100.00;104117.09;5010766;28;20484;-70
2023/06/08 10:41:43;;;;;;;4.20;3.40;;;;;;;25.79;100.00;103649.72;5010801;28;20030;-70
2023/06/08 10:44:23;;;;;;;;;;;;;;;27.24;100.00;103178.31;5011348;28;20030;-71
2023/06/08 10:46:54;;;;;;;7.22;3.10;;;;;;;26.50;100.00;101842.53;5013568;28;19905;-70
2023/06/08 10:49:20;;;;;;;5.60;3.17;;;;;;;26.77;100.00;101425.63;5027317;28;20041;-71
2023/06/08 10:51:53;;;;;;;6.10;3.33;;;;;;;26.69;100.00;101427.91;5010534;28;20029;-70
2023/06/08 10:54:24;;;;;;;6.55;3.25;;;;;;;26.49;100.00;101468.47;5010227;28;20064;-70
2023/06/08 10:56:53;;;;;;;4.20;2.88;;;;;;;26.52;100.00;101491.75;5010786;28;20018;-70
2023/06/08 10:59:37;;;;;;;4.80;2.83;;;;;;;27.12;100.00;101570.16;5010685;28;20029;-70
2023/06/08 11:02:06;;;;;;;5.72;3.08;;;;;;;27.44;100.00;101549.59;5009467;28;20025;-70
2023/06/08 11:04:33;;;;;;;5.07;3.28;;;;;;;26.44;100.00;101407.94;5009579;28;20057;-70
2023/06/08 11:07:07;;;;;;;7.72;3.13;;;;;;;26.18;100.00;101307.25;5010781;28;20060;-70
2023/06/08 11:09:36;;;;;;;5.72;3.25;;;;;;;26.21;100.00;101238.34;5010364;28;20022;-70
2023/06/08 11:12:03;;;;;;;5.05;3.17;;;;;;;27.09;100.00;101322.25;5025304;28;20045;-70
2023/06/08 11:14:29;;;;;;;4.50;3.22;;;;;;;26.61;100.00;101226.66;5013998;28;20076;-70
2023/06/08 11:16:56;;;;;;;8.57;3.45;;;;;;;26.36;100.00;101096.38;5018977;28;20057;-70
2023/06/08 11:19:22;;;;;;;5.28;3.30;;;;;;;26.26;100.00;101053.69;5017980;28;20101;-70